Time;durP1;ratioP1;P1;durP2;ratioP2;P2;SDS_P1;SDS_P2;PMS_P1;PMS_P2;Temp;Humidity;BMP_temperature;BMP_pressure;BME280_temperature;BME280_humidity;BME280_pressure;Samples;Min_cycle;Max_cycle;Signal;HPM_P1;HPM_P2
2023/03/11 00:01:53;;;;;;;;;;;;;;;;;;5055776;28;19913;-49
2023/03/11 00:04:19;;;;;;;;;;;;;;;;;;5061725;28;19912;-49
2023/03/11 00:06:45;;;;;;;;;;;;;;;;;;5052863;28;20017;-50
2023/03/11 00:09:11;;;;;;;;;;;;;;;;;;5069933;28;19912;-49
2023/03/11 00:11:37;;;;;;;;;;;;;;;;;;5065121;28;19957;-48
2023/03/11 00:14:03;;;;;;;;;;;;;;;;;;5069708;28;19916;-49
2023/03/11 00:16:28;;;;;;;;;;;;;;;;;;5071638;28;19916;-48
2023/03/11 00:18:54;;;;;;;;;;;;;;;;;;5072330;28;19904;-48
2023/03/11 00:21:20;;;;;;;;;;;;;;;;;;5059309;28;19992;-47
2023/03/11 00:23:46;;;;;;;;;;;;;;;;;;5063911;28;20417;-48
2023/03/11 00:26:12;;;;;;;;;;;;;;;;;;5054423;28;19908;-49
2023/03/11 00:28:38;;;;;;;;;;;;;;;;;;5070183;28;20109;-48
2023/03/11 00:31:04;;;;;;;;;;;;;;;;;;5056859;28;19916;-48
2023/03/11 00:33:30;;;;;;;;;;;;;;;;;;5052316;28;19909;-46
2023/03/11 00:35:56;;;;;;;;;;;;;;;;;;5072026;28;19983;-48
2023/03/11 00:38:22;;;;;;;;;;;;;;;;;;5064507;28;19912;-49
2023/03/11 00:40:47;;;;;;;;;;;;;;;;;;5065234;28;19915;-50
2023/03/11 00:43:13;;;;;;;;;;;;;;;;;;5066139;28;19909;-48
2023/03/11 00:45:39;;;;;;;;;;;;;;;;;;5058315;28;19909;-51
2023/03/11 00:48:05;;;;;;;;;;;;;;;;;;5066872;28;19924;-48
2023/03/11 00:50:31;;;;;;;;;;;;;;;;;;5068384;28;19955;-48
2023/03/11 00:52:57;;;;;;;;;;;;;;;;;;5070700;28;19913;-47
2023/03/11 00:55:23;;;;;;;;;;;;;;;;;;5064531;28;20333;-49
2023/03/11 00:57:49;;;;;;;;;;;;;;;;;;5070217;28;19931;-47
2023/03/11 01:00:14;;;;;;;;;;;;;;;;;;5059069;28;19916;-49
2023/03/11 01:02:40;;;;;;;;;;;;;;;;;;5065192;28;19909;-51
2023/03/11 01:05:06;;;;;;;;;;;;;;;;;;5057101;28;20354;-50
2023/03/11 01:07:32;;;;;;;;;;;;;;;;;;5067888;28;19913;-45
2023/03/11 01:09:58;;;;;;;;;;;;;;;;;;5060238;28;19904;-51
2023/03/11 01:12:24;;;;;;;;;;;;;;;;;;5068497;28;19934;-50
2023/03/11 01:14:50;;;;;;;;;;;;;;;;;;5062660;28;19913;-48
2023/03/11 01:17:16;;;;;;;;;;;;;;;;;;5071515;28;19978;-48
2023/03/11 01:19:41;;;;;;;;;;;;;;;;;;5054082;28;19961;-49
2023/03/11 01:22:08;;;;;;;;;;;;;;;;;;5071900;28;20363;-49
2023/03/11 01:24:34;;;;;;;;;;;;;;;;;;5055495;28;19905;-46
2023/03/11 01:27:00;;;;;;;;;;;;;;;;;;5061738;28;19927;-47
2023/03/11 01:29:26;;;;;;;;;;;;;;;;;;5065017;28;20278;-47
2023/03/11 01:31:52;;;;;;;;;;;;;;;;;;5067739;28;19909;-46
2023/03/11 01:34:18;;;;;;;;;;;;;;;;;;5052048;28;20007;-46
2023/03/11 01:36:44;;;;;;;;;;;;;;;;;;5034718;28;19915;-46
2023/03/11 01:39:10;;;;;;;;;;;;;;;;;;5058941;28;19916;-46
2023/03/11 01:41:35;;;;;;;;;;;;;;;;;;5065380;28;19943;-46
2023/03/11 01:44:03;;;;;;;;;;;;;;;;;;5055183;28;19908;-46
2023/03/11 01:46:29;;;;;;;;;;;;;;;;;;5068000;28;19908;-48
2023/03/11 01:48:55;;;;;;;;;;;;;;;;;;5059725;28;20371;-47
2023/03/11 01:51:21;;;;;;;;;;;;;;;;;;5051222;28;19924;-48
2023/03/11 01:53:47;;;;;;;;;;;;;;;;;;5052267;28;19916;-49
2023/03/11 01:56:13;;;;;;;;;;;;;;;;;;5052600;28;19962;-46
2023/03/11 01:58:39;;;;;;;;;;;;;;;;;;5050548;28;19913;-46
2023/03/11 02:01:04;;;;;;;;;;;;;;;;;;5051721;28;20000;-47
2023/03/11 02:03:30;;;;;;;;;;;;;;;;;;5052555;28;19909;-46
2023/03/11 02:05:56;;;;;;;;;;;;;;;;;;5052946;28;19955;-46
2023/03/11 02:08:22;;;;;;;;;;;;;;;;;;5063040;28;19951;-48
2023/03/11 02:10:48;;;;;;;;;;;;;;;;;;5070460;28;19908;-47
2023/03/11 02:13:14;;;;;;;;;;;;;;;;;;5059185;28;19912;-47
2023/03/11 02:15:40;;;;;;;;;;;;;;;;;;5052256;28;20658;-47
2023/03/11 02:18:06;;;;;;;;;;;;;;;;;;5050889;28;19916;-47
2023/03/11 02:20:32;;;;;;;;;;;;;;;;;;5065843;28;19908;-48
2023/03/11 02:22:57;;;;;;;;;;;;;;;;;;5061525;28;19912;-48
2023/03/11 02:25:24;;;;;;;;;;;;;;;;;;5068557;28;19995;-46
2023/03/11 02:27:50;;;;;;;;;;;;;;;;;;5067636;28;19920;-47
2023/03/11 02:30:15;;;;;;;;;;;;;;;;;;5070468;28;19921;-47
2023/03/11 02:32:41;;;;;;;;;;;;;;;;;;5060583;28;19909;-47
2023/03/11 02:35:07;;;;;;;;;;;;;;;;;;5056914;28;19917;-47
2023/03/11 02:37:33;;;;;;;;;;;;;;;;;;5059937;28;19908;-48
2023/03/11 02:39:59;;;;;;;;;;;;;;;;;;5071946;28;20371;-48
2023/03/11 02:42:25;;;;;;;;;;;;;;;;;;5063668;28;19909;-47
2023/03/11 02:44:51;;;;;;;;;;;;;;;;;;5070604;28;19942;-46
2023/03/11 02:47:17;;;;;;;;;;;;;;;;;;5064783;28;20430;-48
2023/03/11 02:49:42;;;;;;;;;;;;;;;;;;5057548;28;19912;-47
2023/03/11 02:52:08;;;;;;;;;;;;;;;;;;5058380;28;19909;-47
2023/03/11 02:54:34;;;;;;;;;;;;;;;;;;5066584;28;20011;-47
2023/03/11 02:57:00;;;;;;;;;;;;;;;;;;5037658;28;20410;-48
2023/03/11 02:59:26;;;;;;;;;;;;;;;;;;5062784;28;19935;-49
2023/03/11 03:01:52;;;;;;;;;;;;;;;;;;5070980;28;20366;-46
2023/03/11 03:04:18;;;;;;;;;;;;;;;;;;5062843;28;19958;-48
2023/03/11 03:06:44;;;;;;;;;;;;;;;;;;5069934;28;19931;-48
2023/03/11 03:09:10;;;;;;;;;;;;;;;;;;5069595;28;19995;-47
2023/03/11 03:11:36;;;;;;;;;;;;;;;;;;5060677;28;19912;-47
2023/03/11 03:14:01;;;;;;;;;;;;;;;;;;5070161;28;19935;-47
2023/03/11 03:16:27;;;;;;;;;;;;;;;;;;5063533;28;19960;-48
2023/03/11 03:18:53;;;;;;;;;;;;;;;;;;5056705;28;19912;-47
2023/03/11 03:21:19;;;;;;;;;;;;;;;;;;5055459;28;19909;-47
2023/03/11 03:23:45;;;;;;;;;;;;;;;;;;5072927;28;20362;-49
2023/03/11 03:26:11;;;;;;;;;;;;;;;;;;5074698;28;19918;-48
2023/03/11 03:28:37;;;;;;;;;;;;;;;;;;5061012;28;20405;-47
2023/03/11 03:31:03;;;;;;;;;;;;;;;;;;5063263;28;19912;-47
2023/03/11 03:33:28;;;;;;;;;;;;;;;;;;5063976;28;20359;-47
2023/03/11 03:35:54;;;;;;;;;;;;;;;;;;5060268;28;20003;-47
2023/03/11 03:38:20;;;;;;;;;;;;;;;;;;5073290;28;19915;-46
2023/03/11 03:40:46;;;;;;;;;;;;;;;;;;5081677;28;19911;-47
2023/03/11 03:43:12;;;;;;;;;;;;;;;;;;5063242;28;20363;-47
2023/03/11 03:45:38;;;;;;;;;;;;;;;;;;5054363;28;19974;-46
2023/03/11 03:48:04;;;;;;;;;;;;;;;;;;5061618;28;19923;-47
2023/03/11 03:50:30;;;;;;;;;;;;;;;;;;5056850;28;21511;-47
2023/03/11 03:52:56;;;;;;;;;;;;;;;;;;5061555;28;19920;-47
2023/03/11 03:55:22;;;;;;;;;;;;;;;;;;5054651;28;20346;-48
2023/03/11 03:57:47;;;;;;;;;;;;;;;;;;5055828;28;19962;-47
2023/03/11 04:00:14;;;;;;;;;;;;;;;;;;5056288;28;19915;-47
2023/03/11 04:02:40;;;;;;;;;;;;;;;;;;5060183;28;19936;-47
2023/03/11 04:05:06;;;;;;;;;;;;;;;;;;5053839;28;20355;-48
2023/03/11 04:07:32;;;;;;;;;;;;;;;;;;5073159;28;20025;-48
2023/03/11 04:09:57;;;;;;;;;;;;;;;;;;5074232;28;19908;-47
2023/03/11 04:12:23;;;;;;;;;;;;;;;;;;5054278;28;19908;-48
2023/03/11 04:14:49;;;;;;;;;;;;;;;;;;5059790;28;19952;-47
2023/03/11 04:17:16;;;;;;;;;;;;;;;;;;5073961;28;19973;-47
2023/03/11 04:19:42;;;;;;;;;;;;;;;;;;5072942;28;19910;-48
2023/03/11 04:22:08;;;;;;;;;;;;;;;;;;5067797;28;19995;-48
2023/03/11 04:24:34;;;;;;;;;;;;;;;;;;5035020;28;19909;-47
2023/03/11 04:27:00;;;;;;;;;;;;;;;;;;5055602;28;19909;-47
2023/03/11 04:29:26;;;;;;;;;;;;;;;;;;5058899;28;19912;-46
2023/03/11 04:31:51;;;;;;;;;;;;;;;;;;5067238;28;19913;-48
2023/03/11 04:34:17;;;;;;;;;;;;;;;;;;5073775;28;20358;-47
2023/03/11 04:36:43;;;;;;;;;;;;;;;;;;5073119;28;19912;-47
2023/03/11 04:39:09;;;;;;;;;;;;;;;;;;5066999;28;20358;-49
2023/03/11 04:41:35;;;;;;;;;;;;;;;;;;5064202;28;19916;-46
2023/03/11 04:44:01;;;;;;;;;;;;;;;;;;5067928;28;19908;-47
2023/03/11 04:46:27;;;;;;;;;;;;;;;;;;5070593;28;19909;-47
2023/03/11 04:48:52;;;;;;;;;;;;;;;;;;5073609;28;19962;-48
2023/03/11 04:51:18;;;;;;;;;;;;;;;;;;5066278;28;19909;-47
2023/03/11 04:53:44;;;;;;;;;;;;;;;;;;5070773;28;19912;-49
2023/03/11 04:56:10;;;;;;;;;;;;;;;;;;5071198;28;20026;-46
2023/03/11 04:58:36;;;;;;;;;;;;;;;;;;5066220;28;19912;-47
2023/03/11 05:01:02;;;;;;;;;;;;;;;;;;5063509;28;20389;-47
2023/03/11 05:03:28;;;;;;;;;;;;;;;;;;5068664;28;19908;-49
2023/03/11 05:05:55;;;;;;;;;;;;;;;;;;5072478;28;19917;-49
2023/03/11 05:08:21;;;;;;;;;;;;;;;;;;5072506;28;19955;-48
2023/03/11 05:10:47;;;;;;;;;;;;;;;;;;5065478;28;19948;-47
2023/03/11 05:13:13;;;;;;;;;;;;;;;;;;5071786;28;20322;-48
2023/03/11 05:15:39;;;;;;;;;;;;;;;;;;5071906;28;19920;-47
2023/03/11 05:18:04;;;;;;;;;;;;;;;;;;5062854;28;19983;-47
2023/03/11 05:20:31;;;;;;;;;;;;;;;;;;5067302;28;19909;-47
2023/03/11 05:22:57;;;;;;;;;;;;;;;;;;5057288;28;19935;-47
2023/03/11 05:25:22;;;;;;;;;;;;;;;;;;5053416;28;19954;-47
2023/03/11 05:27:48;;;;;;;;;;;;;;;;;;5061503;28;19908;-49
2023/03/11 05:30:14;;;;;;;;;;;;;;;;;;5067010;28;20312;-48
2023/03/11 05:32:40;;;;;;;;;;;;;;;;;;5063263;28;19916;-47
2023/03/11 05:35:06;;;;;;;;;;;;;;;;;;5054205;28;19917;-47
2023/03/11 05:37:32;;;;;;;;;;;;;;;;;;5051330;28;19909;-48
2023/03/11 05:39:58;;;;;;;;;;;;;;;;;;5057348;28;20317;-50
2023/03/11 05:42:24;;;;;;;;;;;;;;;;;;5060426;28;20007;-47
2023/03/11 05:44:49;;;;;;;;;;;;;;;;;;5052827;28;20038;-46
2023/03/11 05:47:15;;;;;;;;;;;;;;;;;;5070886;28;20401;-46
2023/03/11 05:49:41;;;;;;;;;;;;;;;;;;5066021;28;19916;-47
2023/03/11 05:52:07;;;;;;;;;;;;;;;;;;5061181;28;19935;-46
2023/03/11 05:54:34;;;;;;;;;;;;;;;;;;5069845;28;19912;-47
2023/03/11 05:57:00;;;;;;;;;;;;;;;;;;5072674;28;19919;-46
2023/03/11 05:59:26;;;;;;;;;;;;;;;;;;5071412;28;19908;-46
2023/03/11 06:01:51;;;;;;;;;;;;;;;;;;5062566;28;20389;-47
2023/03/11 06:04:17;;;;;;;;;;;;;;;;;;5054219;28;19920;-46
2023/03/11 06:06:43;;;;;;;;;;;;;;;;;;5051851;28;19982;-47
2023/03/11 06:09:09;;;;;;;;;;;;;;;;;;5058089;28;19995;-48
2023/03/11 06:11:35;;;;;;;;;;;;;;;;;;5058699;28;19917;-46
2023/03/11 06:14:01;;;;;;;;;;;;;;;;;;5056952;28;19912;-47
2023/03/11 06:16:27;;;;;;;;;;;;;;;;;;5051424;28;19913;-47
2023/03/11 06:18:53;;;;;;;;;;;;;;;;;;5052808;28;19909;-47
2023/03/11 06:21:19;;;;;;;;;;;;;;;;;;5052040;28;19962;-47
2023/03/11 06:23:44;;;;;;;;;;;;;;;;;;5053321;28;20383;-47
2023/03/11 06:26:10;;;;;;;;;;;;;;;;;;5060224;28;19908;-47
2023/03/11 06:28:36;;;;;;;;;;;;;;;;;;5051914;28;19912;-49
2023/03/11 06:31:02;;;;;;;;;;;;;;;;;;5052179;28;19963;-48
2023/03/11 06:33:28;;;;;;;;;;;;;;;;;;5055971;28;19953;-50
2023/03/11 06:35:54;;;;;;;;;;;;;;;;;;5064386;28;20414;-49
2023/03/11 06:38:20;;;;;;;;;;;;;;;;;;5062569;28;19915;-46
2023/03/11 06:40:46;;;;;;;;;;;;;;;;;;5062282;28;19909;-47
2023/03/11 06:43:12;;;;;;;;;;;;;;;;;;5070819;28;19915;-47
2023/03/11 06:45:38;;;;;;;;;;;;;;;;;;5070155;28;19962;-47
2023/03/11 06:48:03;;;;;;;;;;;;;;;;;;5063581;28;19921;-51
2023/03/11 06:50:29;;;;;;;;;;;;;;;;;;5061373;28;19998;-49
2023/03/11 06:52:56;;;;;;;;;;;;;;;;;;5070113;28;19934;-47
2023/03/11 06:55:21;;;;;;;;;;;;;;;;;;5067965;28;20457;-47
2023/03/11 06:57:47;;;;;;;;;;;;;;;;;;5071181;28;20007;-50
2023/03/11 07:00:13;;;;;;;;;;;;;;;;;;5069241;28;20006;-50
2023/03/11 07:02:39;;;;;;;;;;;;;;;;;;5070370;28;20551;-51
2023/03/11 07:05:06;;;;;;;;;;;;;;;;;;5047781;28;19912;-48
2023/03/11 07:07:31;;;;;;;;;;;;;;;;;;5068034;28;19908;-49
2023/03/11 07:09:57;;;;;;;;;;;;;;;;;;5059675;28;20015;-47
2023/03/11 07:12:24;;;;;;;;;;;;;;;;;;5068811;28;19959;-47
2023/03/11 07:14:50;;;;;;;;;;;;;;;;;;5066766;28;20003;-49
2023/03/11 07:17:15;;;;;;;;;;;;;;;;;;5072644;28;20004;-46
2023/03/11 07:19:41;;;;;;;;;;;;;;;;;;5065181;28;19908;-48
2023/03/11 07:22:07;;;;;;;;;;;;;;;;;;5069167;28;20354;-47
2023/03/11 07:24:33;;;;;;;;;;;;;;;;;;5059634;28;19995;-47
2023/03/11 07:26:59;;;;;;;;;;;;;;;;;;5066277;28;20416;-47
2023/03/11 07:29:25;;;;;;;;;;;;;;;;;;5065428;28;20445;-48
2023/03/11 07:31:51;;;;;;;;;;;;;;;;;;5053734;28;19947;-47
2023/03/11 07:34:17;;;;;;;;;;;;;;;;;;5049551;28;20283;-47
2023/03/11 07:36:42;;;;;;;;;;;;;;;;;;5049324;28;19904;-46
2023/03/11 07:39:08;;;;;;;;;;;;;;;;;;5051238;28;19916;-47
2023/03/11 07:41:34;;;;;;;;;;;;;;;;;;5059994;28;19935;-46
2023/03/11 07:44:00;;;;;;;;;;;;;;;;;;5051094;28;20266;-47
2023/03/11 07:46:26;;;;;;;;;;;;;;;;;;5057493;28;19915;-46
2023/03/11 07:48:52;;;;;;;;;;;;;;;;;;5067420;28;19915;-48
2023/03/11 07:51:18;;;;;;;;;;;;;;;;;;5064211;28;19913;-47
2023/03/11 07:53:44;;;;;;;;;;;;;;;;;;5066317;28;19925;-47
2023/03/11 07:56:09;;;;;;;;;;;;;;;;;;5064617;28;20263;-47
2023/03/11 07:58:35;;;;;;;;;;;;;;;;;;5067273;28;19908;-47
2023/03/11 08:01:03;;;;;;;;;;;;;;;;;;5055733;28;19995;-47
2023/03/11 08:03:28;;;;;;;;;;;;;;;;;;5066770;28;19991;-48
2023/03/11 08:05:54;;;;;;;;;;;;;;;;;;5055714;28;20004;-50
2023/03/11 08:08:20;;;;;;;;;;;;;;;;;;5057504;28;19942;-50
2023/03/11 08:10:46;;;;;;;;;;;;;;;;;;5057292;28;19909;-47
2023/03/11 08:13:12;;;;;;;;;;;;;;;;;;5053321;28;20015;-48
2023/03/11 08:15:38;;;;;;;;;;;;;;;;;;5063862;28;19909;-48
2023/03/11 08:18:04;;;;;;;;;;;;;;;;;;5067898;28;19916;-47
2023/03/11 08:20:30;;;;;;;;;;;;;;;;;;5065861;28;20318;-48
2023/03/11 08:22:56;;;;;;;;;;;;;;;;;;5071167;28;19959;-48
2023/03/11 08:25:21;;;;;;;;;;;;;;;;;;5067076;28;19908;-47
2023/03/11 08:27:47;;;;;;;;;;;;;;;;;;5068880;28;19916;-48
2023/03/11 08:30:13;;;;;;;;;;;;;;;;;;5067205;28;19935;-49
2023/03/11 08:32:39;;;;;;;;;;;;;;;;;;5068889;28;19916;-62
2023/03/11 08:35:05;;;;;;;;;;;;;;;;;;5070121;28;19920;-59
2023/03/11 08:37:31;;;;;;;;;;;;;;;;;;5068380;28;19916;-55
2023/03/11 08:39:57;;;;;;;;;;;;;;;;;;5067806;28;19962;-55
2023/03/11 08:42:23;;;;;;;;;;;;;;;;;;5072423;28;20399;-53
2023/03/11 08:44:48;;;;;;;;;;;;;;;;;;5060252;28;19912;-56
2023/03/11 08:47:14;;;;;;;;;;;;;;;;;;5070717;28;20657;-56
2023/03/11 08:49:40;;;;;;;;;;;;;;;;;;5064060;28;20011;-62
2023/03/11 08:52:06;;;;;;;;;;;;;;;;;;5069287;28;19909;-59
2023/03/11 08:54:32;;;;;;;;;;;;;;;;;;5065055;28;19939;-59
2023/03/11 08:57:01;;;;;;;;;;;;;;;;;;5070425;28;20007;-60
2023/03/11 08:59:27;;;;;;;;;;;;;;;;;;5066839;28;19920;-61
2023/03/11 09:01:53;;;;;;;;;;;;;;;;;;5070008;28;20030;-59
2023/03/11 09:04:19;;;;;;;;;;;;;;;;;;5067658;28;20467;-60
2023/03/11 09:06:45;;;;;;;;;;;;;;;;;;5065946;28;19916;-51
2023/03/11 09:09:11;;;;;;;;;;;;;;;;;;5070945;28;19923;-56
2023/03/11 09:11:37;;;;;;;;;;;;;;;;;;5068914;28;19908;-56
2023/03/11 09:14:02;;;;;;;;;;;;;;;;;;5066829;28;19912;-56
2023/03/11 09:16:28;;;;;;;;;;;;;;;;;;5070171;28;19955;-57
2023/03/11 09:18:54;;;;;;;;;;;;;;;;;;5070391;28;20313;-56
2023/03/11 09:21:20;;;;;;;;;;;;;;;;;;5070833;28;19916;-56
2023/03/11 09:23:46;;;;;;;;;;;;;;;;;;5070615;28;19954;-61
2023/03/11 09:26:12;;;;;;;;;;;;;;;;;;5061994;28;19969;-47
2023/03/11 09:28:38;;;;;;;;;;;;;;;;;;5052713;28;19916;-50
2023/03/11 09:31:03;;;;;;;;;;;;;;;;;;5060942;28;19912;-53
2023/03/11 09:33:29;;;;;;;;;;;;;;;;;;5067632;28;19966;-52
2023/03/11 09:35:55;;;;;;;;;;;;;;;;;;5069419;28;20006;-47
2023/03/11 09:38:21;;;;;;;;;;;;;;;;;;5061341;28;19909;-46
2023/03/11 09:40:47;;;;;;;;;;;;;;;;;;5074016;28;19908;-47
2023/03/11 09:43:13;;;;;;;;;;;;;;;;;;5059136;28;20355;-47
2023/03/11 09:45:39;;;;;;;;;;;;;;;;;;5054764;28;19912;-47
2023/03/11 09:48:05;;;;;;;;;;;;;;;;;;5061837;28;19923;-46
2023/03/11 09:50:30;;;;;;;;;;;;;;;;;;5062690;28;20033;-47
2023/03/11 09:52:56;;;;;;;;;;;;;;;;;;5058858;28;19909;-48
2023/03/11 09:55:22;;;;;;;;;;;;;;;;;;5069671;28;19962;-51
2023/03/11 09:57:48;;;;;;;;;;;;;;;;;;5056552;28;19917;-53
2023/03/11 10:00:14;;;;;;;;;;;;;;;;;;5062754;28;19930;-49
2023/03/11 10:02:40;;;;;;;;;;;;;;;;;;5070451;28;19915;-49
2023/03/11 10:05:06;;;;;;;;;;;;;;;;;;5071623;28;20041;-51
2023/03/11 10:07:32;;;;;;;;;;;;;;;;;;5070951;28;19909;-53
2023/03/11 10:09:58;;;;;;;;;;;;;;;;;;5057277;28;19912;-50
2023/03/11 10:12:23;;;;;;;;;;;;;;;;;;5065126;28;20291;-49
2023/03/11 10:14:49;;;;;;;;;;;;;;;;;;5061064;28;20374;-52
2023/03/11 10:17:15;;;;;;;;;;;;;;;;;;5061490;28;19916;-51
2023/03/11 10:19:41;;;;;;;;;;;;;;;;;;5068099;28;20716;-49
2023/03/11 10:22:07;;;;;;;;;;;;;;;;;;5068689;28;19915;-50
2023/03/11 10:24:33;;;;;;;;;;;;;;;;;;5068894;28;20436;-52
2023/03/11 10:26:59;;;;;;;;;;;;;;;;;;5071922;28;19950;-48
2023/03/11 10:29:25;;;;;;;;;;;;;;;;;;5070494;28;19915;-49
2023/03/11 10:31:50;;;;;;;;;;;;;;;;;;5063706;28;19913;-51
2023/03/11 10:34:16;;;;;;;;;;;;;;;;;;5070235;28;19916;-52
2023/03/11 10:36:42;;;;;;;;;;;;;;;;;;5070404;28;20214;-49
2023/03/11 10:39:08;;;;;;;;;;;;;;;;;;5071547;28;20416;-50
2023/03/11 10:41:34;;;;;;;;;;;;;;;;;;5073133;28;19915;-52
2023/03/11 10:44:00;;;;;;;;;;;;;;;;;;5070140;28;20305;-49
2023/03/11 10:46:26;;;;;;;;;;;;;;;;;;5060425;28;19915;-49
2023/03/11 10:48:52;;;;;;;;;;;;;;;;;;5050640;28;20390;-50
2023/03/11 10:51:21;;;;;;;;;;;;;;;;;;5051717;28;19995;-51
2023/03/11 10:53:47;;;;;;;;;;;;;;;;;;5032954;28;19913;-49
2023/03/11 10:56:13;;;;;;;;;;;;;;;;;;5047559;28;19919;-51
2023/03/11 10:58:39;;;;;;;;;;;;;;;;;;5031229;28;19909;-49
2023/03/11 11:01:05;;;;;;;;;;;;;;;;;;5044839;28;19909;-48
2023/03/11 11:03:30;;;;;;;;;;;;;;;;;;5049450;28;19909;-49
2023/03/11 11:05:56;;;;;;;;;;;;;;;;;;5041230;28;19909;-48
2023/03/11 11:08:22;;;;;;;;;;;;;;;;;;5030672;28;20271;-51
2023/03/11 11:10:48;;;;;;;;;;;;;;;;;;5039666;28;20000;-50
2023/03/11 11:13:15;;;;;;;;;;;;;;;;;;5033342;28;19916;-48
2023/03/11 11:15:41;;;;;;;;;;;;;;;;;;5030823;28;19916;-49
2023/03/11 11:18:07;;;;;;;;;;;;;;;;;;5031531;28;20283;-50
2023/03/11 11:20:33;;;;;;;;;;;;;;;;;;5047406;28;19908;-52
2023/03/11 11:22:59;;;;;;;;;;;;;;;;;;5042501;28;19915;-48
2023/03/11 11:25:25;;;;;;;;;;;;;;;;;;5046102;28;19916;-49
2023/03/11 11:27:50;;;;;;;;;;;;;;;;;;5032154;28;19916;-50
2023/03/11 11:30:16;;;;;;;;;;;;;;;;;;5051001;28;20370;-52
2023/03/11 11:32:42;;;;;;;;;;;;;;;;;;5042596;28;19915;-48
2023/03/11 11:35:08;;;;;;;;;;;;;;;;;;5034122;28;20433;-48
2023/03/11 11:37:34;;;;;;;;;;;;;;;;;;5035240;28;19913;-48
2023/03/11 11:40:00;;;;;;;;;;;;;;;;;;5048404;28;20271;-48
2023/03/11 11:42:26;;;;;;;;;;;;;;;;;;5036465;28;20395;-49
2023/03/11 11:44:52;;;;;;;;;;;;;;;;;;5034900;28;19984;-48
2023/03/11 11:47:18;;;;;;;;;;;;;;;;;;5050163;28;19916;-51
2023/03/11 11:49:44;;;;;;;;;;;;;;;;;;5038416;28;19917;-52
2023/03/11 11:52:09;;;;;;;;;;;;;;;;;;5054812;28;19916;-53
2023/03/11 11:54:35;;;;;;;;;;;;;;;;;;5053394;28;19963;-49
2023/03/11 11:57:01;;;;;;;;;;;;;;;;;;5053614;28;19956;-51
2023/03/11 11:59:27;;;;;;;;;;;;;;;;;;5052615;28;19986;-49
2023/03/11 12:01:53;;;;;;;;;;;;;;;;;;5042823;28;19958;-52
2023/03/11 12:04:19;;;;;;;;;;;;;;;;;;5041750;28;19956;-53
2023/03/11 12:06:45;;;;;;;;;;;;;;;;;;5046317;28;20011;-48
2023/03/11 12:09:13;;;;;;;;;;;;;;;;;;5053986;28;19947;-48
2023/03/11 12:11:39;;;;;;;;;;;;;;;;;;5053037;28;20011;-53
2023/03/11 12:14:05;;;;;;;;;;;;;;;;;;5043915;28;20381;-49
2023/03/11 12:16:31;;;;;;;;;;;;;;;;;;5048955;28;19963;-48
2023/03/11 12:18:57;;;;;;;;;;;;;;;;;;5054135;28;19915;-53
2023/03/11 12:21:26;;;;;;;;;;;;;;;;;;5052862;28;20343;-48
2023/03/11 12:23:52;;;;;;;;;;;;;;;;;;5043900;28;19920;-51
2023/03/11 12:26:17;;;;;;;;;;;;;;;;;;5048362;28;19909;-49
2023/03/11 12:28:43;;;;;;;;;;;;;;;;;;5046813;28;19919;-51
2023/03/11 12:31:09;;;;;;;;;;;;;;;;;;5053219;28;19916;-51
2023/03/11 12:33:35;;;;;;;;;;;;;;;;;;5043167;28;19977;-53
2023/03/11 12:36:01;;;;;;;;;;;;;;;;;;5051191;28;20050;-53
2023/03/11 12:38:28;;;;;;;;;;;;;;;;;;5043958;28;19951;-50
2023/03/11 12:40:54;;;;;;;;;;;;;;;;;;5054808;28;20315;-53
2023/03/11 12:43:20;;;;;;;;;;;;;;;;;;5050637;28;19963;-49
2023/03/11 12:45:45;;;;;;;;;;;;;;;;;;5032883;28;19913;-49
2023/03/11 12:48:11;;;;;;;;;;;;;;;;;;5040562;28;20310;-52
2023/03/11 12:50:38;;;;;;;;;;;;;;;;;;5052643;28;19908;-49
2023/03/11 12:53:04;;;;;;;;;;;;;;;;;;5023026;28;19909;-49
2023/03/11 12:55:30;;;;;;;;;;;;;;;;;;5034433;28;19913;-49
2023/03/11 12:57:57;;;;;;;;;;;;;;;;;;5045236;28;19916;-49
2023/03/11 13:00:22;;;;;;;;;;;;;;;;;;5045787;28;19975;-47
2023/03/11 13:02:48;;;;;;;;;;;;;;;;;;5048959;28;20355;-48
2023/03/11 13:05:14;;;;;;;;;;;;;;;;;;5051650;28;19940;-50
2023/03/11 13:07:41;;;;;;;;;;;;;;;;;;5053109;28;20011;-49
2023/03/11 13:10:08;;;;;;;;;;;;;;;;;;5051174;28;20283;-48
2023/03/11 13:12:33;;;;;;;;;;;;;;;;;;5042017;28;19908;-48
2023/03/11 13:14:59;;;;;;;;;;;;;;;;;;5033372;28;19924;-48
2023/03/11 13:17:25;;;;;;;;;;;;;;;;;;5046820;28;19923;-47
2023/03/11 13:19:51;;;;;;;;;;;;;;;;;;5033510;28;19940;-50
2023/03/11 13:22:17;;;;;;;;;;;;;;;;;;5051556;28;19913;-48
2023/03/11 13:24:43;;;;;;;;;;;;;;;;;;5052694;28;20138;-47
2023/03/11 13:27:09;;;;;;;;;;;;;;;;;;5052949;28;19915;-47
2023/03/11 13:29:35;;;;;;;;;;;;;;;;;;5051957;28;20421;-47
2023/03/11 13:32:01;;;;;;;;;;;;;;;;;;5038799;28;19909;-46
2023/03/11 13:34:27;;;;;;;;;;;;;;;;;;5040785;28;19912;-48
2023/03/11 13:36:53;;;;;;;;;;;;;;;;;;5046737;28;20280;-48
2023/03/11 13:39:18;;;;;;;;;;;;;;;;;;5037139;28;19908;-48
2023/03/11 13:41:44;;;;;;;;;;;;;;;;;;5054155;28;19912;-47
2023/03/11 13:44:10;;;;;;;;;;;;;;;;;;5041915;28;19908;-46
2023/03/11 13:46:39;;;;;;;;;;;;;;;;;;5050544;28;20318;-48
2023/03/11 13:49:05;;;;;;;;;;;;;;;;;;5051637;28;19996;-47
2023/03/11 13:51:31;;;;;;;;;;;;;;;;;;5036559;28;20011;-47
2023/03/11 13:53:57;;;;;;;;;;;;;;;;;;5051773;28;19917;-50
2023/03/11 13:56:23;;;;;;;;;;;;;;;;;;5049772;28;19912;-49
2023/03/11 13:58:49;;;;;;;;;;;;;;;;;;5051145;28;20421;-47
2023/03/11 14:01:14;;;;;;;;;;;;;;;;;;5044818;28;19909;-50
2023/03/11 14:03:40;;;;;;;;;;;;;;;;;;5049227;28;20007;-47
2023/03/11 14:06:06;;;;;;;;;;;;;;;;;;5051484;28;19916;-47
2023/03/11 14:08:33;;;;;;;;;;;;;;;;;;5041086;28;19909;-47
2023/03/11 14:10:59;;;;;;;;;;;;;;;;;;5046185;28;20011;-47
2023/03/11 14:13:25;;;;;;;;;;;;;;;;;;5037554;28;20015;-47
2023/03/11 14:15:51;;;;;;;;;;;;;;;;;;5033136;28;19913;-52
2023/03/11 14:18:17;;;;;;;;;;;;;;;;;;5044127;28;19909;-51
2023/03/11 14:20:43;;;;;;;;;;;;;;;;;;5043463;28;20105;-47
2023/03/11 14:23:09;;;;;;;;;;;;;;;;;;5031924;28;20305;-49
2023/03/11 14:25:37;;;;;;;;;;;;;;;;;;5038752;28;20035;-49
2023/03/11 14:28:03;;;;;;;;;;;;;;;;;;5037878;28;19909;-50
2023/03/11 14:30:29;;;;;;;;;;;;;;;;;;5048329;28;19915;-48
2023/03/11 14:32:54;;;;;;;;;;;;;;;;;;5051208;28;19912;-49
2023/03/11 14:35:21;;;;;;;;;;;;;;;;;;5043728;28;19920;-50
2023/03/11 14:37:47;;;;;;;;;;;;;;;;;;5045010;28;19913;-47
2023/03/11 14:40:13;;;;;;;;;;;;;;;;;;5037511;28;19913;-47
2023/03/11 14:42:39;;;;;;;;;;;;;;;;;;5006236;28;19909;-47
2023/03/11 14:45:05;;;;;;;;;;;;;;;;;;5029103;28;19913;-48
2023/03/11 14:47:31;;;;;;;;;;;;;;;;;;5052374;28;19935;-48
2023/03/11 14:49:57;;;;;;;;;;;;;;;;;;5041895;28;19923;-48
2023/03/11 14:52:22;;;;;;;;;;;;;;;;;;5030378;28;19909;-46
2023/03/11 14:54:48;;;;;;;;;;;;;;;;;;5044910;28;19998;-48
2023/03/11 14:57:14;;;;;;;;;;;;;;;;;;5033168;28;20379;-50
2023/03/11 14:59:40;;;;;;;;;;;;;;;;;;5042684;28;19908;-50
2023/03/11 15:02:06;;;;;;;;;;;;;;;;;;5041099;28;19958;-52
2023/03/11 15:04:32;;;;;;;;;;;;;;;;;;5047591;28;19984;-49
2023/03/11 15:06:58;;;;;;;;;;;;;;;;;;5045647;28;20405;-47
2023/03/11 15:09:24;;;;;;;;;;;;;;;;;;5043453;28;19909;-46
2023/03/11 15:11:50;;;;;;;;;;;;;;;;;;5029650;28;20330;-50
2023/03/11 15:14:16;;;;;;;;;;;;;;;;;;5033030;28;20322;-48
2023/03/11 15:16:42;;;;;;;;;;;;;;;;;;5032058;28;19905;-48
2023/03/11 15:19:08;;;;;;;;;;;;;;;;;;5033193;28;19909;-48
2023/03/11 15:21:34;;;;;;;;;;;;;;;;;;5033801;28;19915;-52
2023/03/11 15:24:00;;;;;;;;;;;;;;;;;;5044818;28;19912;-47
2023/03/11 15:26:26;;;;;;;;;;;;;;;;;;5043040;28;20406;-46
2023/03/11 15:28:52;;;;;;;;;;;;;;;;;;5046054;28;20000;-49
2023/03/11 15:31:17;;;;;;;;;;;;;;;;;;5034685;28;19999;-50
2023/03/11 15:33:43;;;;;;;;;;;;;;;;;;5049974;28;19919;-50
2023/03/11 15:36:09;;;;;;;;;;;;;;;;;;5043356;28;19959;-51
2023/03/11 15:38:35;;;;;;;;;;;;;;;;;;5044386;28;19947;-48
2023/03/11 15:41:01;;;;;;;;;;;;;;;;;;5050391;28;19953;-48
2023/03/11 15:43:27;;;;;;;;;;;;;;;;;;5035432;28;19947;-49
2023/03/11 15:45:53;;;;;;;;;;;;;;;;;;5044537;28;20383;-50
2023/03/11 15:48:19;;;;;;;;;;;;;;;;;;5041521;28;19923;-48
2023/03/11 15:50:45;;;;;;;;;;;;;;;;;;5042046;28;20019;-49
2023/03/11 15:53:11;;;;;;;;;;;;;;;;;;5049605;28;19992;-50
2023/03/11 15:55:38;;;;;;;;;;;;;;;;;;5045803;28;19913;-46
2023/03/11 15:58:04;;;;;;;;;;;;;;;;;;5047965;28;19909;-47
2023/03/11 16:00:30;;;;;;;;;;;;;;;;;;5047348;28;19912;-48
2023/03/11 16:02:56;;;;;;;;;;;;;;;;;;5048518;28;19917;-48
2023/03/11 16:05:22;;;;;;;;;;;;;;;;;;5047975;28;19909;-47
2023/03/11 16:07:47;;;;;;;;;;;;;;;;;;5049079;28;19909;-49
2023/03/11 16:10:13;;;;;;;;;;;;;;;;;;5046817;28;20286;-50
2023/03/11 16:12:41;;;;;;;;;;;;;;;;;;5048956;28;20014;-49
2023/03/11 16:15:07;;;;;;;;;;;;;;;;;;5046742;28;19956;-52
2023/03/11 16:17:33;;;;;;;;;;;;;;;;;;5046888;28;19997;-53
2023/03/11 16:19:58;;;;;;;;;;;;;;;;;;5045810;28;19909;-48
2023/03/11 16:22:24;;;;;;;;;;;;;;;;;;5048863;28;19994;-52
2023/03/11 16:24:50;;;;;;;;;;;;;;;;;;5047192;28;19915;-50
2023/03/11 16:27:16;;;;;;;;;;;;;;;;;;5051172;28;19932;-52
2023/03/11 16:29:42;;;;;;;;;;;;;;;;;;5047575;28;19908;-54
2023/03/11 16:32:09;;;;;;;;;;;;;;;;;;5045216;28;19920;-49
2023/03/11 16:34:35;;;;;;;;;;;;;;;;;;5034415;28;19964;-52
2023/03/11 16:37:01;;;;;;;;;;;;;;;;;;5035538;28;19959;-51